Time;durP1;ratioP1;P1;durP2;ratioP2;P2;SDS_P1;SDS_P2;PMS_P1;PMS_P2;Temp;Humidity;BMP_temperature;BMP_pressure;BME280_temperature;BME280_humidity;BME280_pressure;Samples;Min_cycle;Max_cycle;Signal;HPM_P1;HPM_P2
2022/09/12 00:01:46;;;;;;;9.93;3.30;;;;;;;22.72;49.79;100036.91;5039898;28;20075;-81
2022/09/12 00:04:12;;;;;;;14.27;3.45;;;;;;;22.68;50.29;100032.09;5048926;28;20025;-81
2022/09/12 00:06:37;;;;;;;9.07;2.90;;;;;;;22.61;50.89;100034.00;5036490;28;20021;-81
2022/09/12 00:09:12;;;;;;;9.30;2.58;;;;;;;22.60;51.13;100019.44;5044712;28;20486;-81
2022/09/12 00:11:40;;;;;;;12.77;2.08;;;;;;;22.65;51.54;100019.69;5069476;28;20025;-82
2022/09/12 00:14:07;;;;;;;8.48;2.10;;;;;;;22.58;51.76;100021.56;5044412;28;20045;-81
2022/09/12 00:16:35;;;;;;;6.45;1.55;;;;;;;22.52;52.18;100027.91;5047075;28;20024;-81
2022/09/12 00:19:02;;;;;;;6.00;1.67;;;;;;;22.54;52.47;100030.41;5054130;28;20395;-80
2022/09/12 00:21:28;;;;;;;4.72;1.42;;;;;;;22.42;52.77;100015.72;5040742;28;20111;-82
2022/09/12 00:23:53;;;;;;;10.18;1.48;;;;;;;22.41;53.51;100033.22;5053307;28;20496;-83
2022/09/12 00:26:20;;;;;;;6.07;1.23;;;;;;;22.28;53.95;100009.44;5045143;28;20402;-83
2022/09/12 00:28:46;;;;;;;5.28;1.50;;;;;;;22.22;54.56;100007.56;5050162;28;20510;-83
2022/09/12 00:31:14;;;;;;;1.83;1.15;;;;;;;22.36;54.70;100035.75;5048384;28;20025;-80
2022/09/12 00:33:40;;;;;;;4.82;1.20;;;;;;;22.48;55.87;100042.25;5035957;28;20068;-83
2022/09/12 00:36:13;;;;;;;7.55;1.33;;;;;;;22.44;56.13;100041.88;5051145;28;20120;-82
2022/09/12 00:38:40;;;;;;;9.80;1.50;;;;;;;22.35;57.13;100040.41;5055105;28;20074;-82
2022/09/12 00:41:12;;;;;;;7.05;1.30;;;;;;;22.39;57.63;100055.34;5053988;28;20040;-82
2022/09/12 00:43:41;;;;;;;13.30;1.58;;;;;;;22.33;58.47;100049.88;5040215;28;20028;-81
2022/09/12 00:46:14;;;;;;;3.90;1.70;;;;;;;22.21;59.17;100055.19;5047144;28;20035;-80
2022/09/12 00:48:49;;;;;;;8.90;1.60;;;;;;;22.09;60.06;100067.84;5048911;28;20022;-80
2022/09/12 00:51:16;;;;;;;4.22;1.73;;;;;;;22.12;60.47;100075.66;5066598;28;20028;-80
2022/09/12 00:53:44;;;;;;;3.80;1.60;;;;;;;21.89;61.59;100088.94;5054244;28;20475;-81
2022/09/12 00:56:12;;;;;;;18.73;2.28;;;;;;;21.71;62.64;100079.41;5047936;28;20028;-81
2022/09/12 00:58:46;;;;;;;11.80;2.65;;;;;;;21.75;62.83;100112.69;5045479;28;20108;-80
2022/09/12 01:01:12;;;;;;;7.72;2.25;;;;;;;21.57;63.90;100118.78;5040964;28;20052;-81
2022/09/12 01:03:37;;;;;;;7.65;2.20;;;;;;;21.53;64.39;100130.34;5049732;28;20029;-81
2022/09/12 01:06:21;;;;;;;5.43;2.67;;;;;;;21.44;65.22;100137.91;5042019;28;20087;-80
2022/09/12 01:08:48;;;;;;;6.00;2.40;;;;;;;21.28;65.99;100118.31;5050201;28;20027;-81
2022/09/12 01:11:15;;;;;;;7.70;2.35;;;;;;;21.07;66.76;100120.09;5054838;28;20408;-80
2022/09/12 01:13:42;;;;;;;4.38;2.22;;;;;;;20.82;68.33;100104.44;5065283;28;20052;-80
2022/09/12 01:16:07;;;;;;;7.60;3.10;;;;;;;20.43;70.85;100116.84;5054314;28;20024;-82
2022/09/12 01:18:42;;;;;;;8.15;2.72;;;;;;;20.24;73.56;100117.53;5048671;28;20024;-81
2022/09/12 01:21:17;;;;;;;9.63;3.25;;;;;;;20.12;74.71;100113.63;5050614;28;20025;-80
2022/09/12 01:23:56;;;;;;;5.70;2.65;;;;;;;19.95;75.27;100107.66;5046485;28;20460;-80
2022/09/12 01:26:40;;;;;;;6.60;2.65;;;;;;;19.82;76.45;100101.22;5033972;28;20049;-80
2022/09/12 01:29:20;;;;;;;5.35;2.80;;;;;;;19.66;77.97;100098.78;5032900;28;20037;-81
2022/09/12 01:32:09;;;;;;;8.15;2.95;;;;;;;19.65;78.44;100094.38;5041527;28;20135;-81
2022/09/12 01:35:03;;;;;;;7.38;2.97;;;;;;;19.70;79.24;100091.88;5044015;28;20430;-81
2022/09/12 01:37:40;;;;;;;16.23;2.95;;;;;;;19.69;79.42;100092.94;5041716;28;20033;-81
2022/09/12 01:40:20;;;;;;;5.43;2.63;;;;;;;19.66;79.91;100101.53;5047379;28;20379;-81
2022/09/12 01:43:03;;;;;;;4.85;2.20;;;;;;;19.69;79.33;100103.84;5047675;28;20465;-81
2022/09/12 01:45:41;;;;;;;11.00;2.25;;;;;;;19.60;79.23;100099.56;5047750;28;20032;-80
2022/09/12 01:48:14;;;;;;;9.13;2.92;;;;;;;19.64;79.47;100115.34;5041547;28;20029;-81
2022/09/12 01:50:51;;;;;;;7.15;2.75;;;;;;;19.68;80.06;100110.34;5050728;28;20030;-81
2022/09/12 01:53:30;;;;;;;5.47;2.53;;;;;;;19.68;80.28;100115.81;5049713;28;20040;-81
2022/09/12 01:56:05;;;;;;;2.70;2.10;;;;;;;19.71;79.89;100104.50;5044808;28;20033;-81
2022/09/12 01:58:52;;;;;;;4.57;2.65;;;;;;;19.70;80.13;100110.97;5042361;28;20028;-81
2022/09/12 02:01:28;;;;;;;6.05;2.45;;;;;;;19.65;80.42;100106.13;5046585;28;20029;-81
2022/09/12 02:04:19;;;;;;;8.30;2.67;;;;;;;19.67;80.52;100095.00;5037217;28;20437;-81
2022/09/12 02:06:55;;;;;;;5.10;2.35;;;;;;;19.70;81.36;100091.88;5036707;28;20028;-81
2022/09/12 02:09:24;;;;;;;5.60;2.45;;;;;;;19.71;80.80;100088.13;5033334;28;20033;-81
2022/09/12 02:11:56;;;;;;;6.35;2.92;;;;;;;19.68;81.20;100089.38;5043537;28;20122;-81
2022/09/12 02:14:36;;;;;;;4.45;1.85;;;;;;;19.80;81.10;100089.66;5038622;28;20056;-81
2022/09/12 02:17:10;;;;;;;4.20;2.28;;;;;;;19.78;80.79;100094.50;5044725;28;20029;-81
2022/09/12 02:19:42;;;;;;;9.93;2.40;;;;;;;19.77;79.96;100088.19;5053097;28;20024;-82
2022/09/12 02:22:12;;;;;;;10.15;2.80;;;;;;;19.70;80.50;100075.50;5047595;28;20051;-81
2022/09/12 02:24:41;;;;;;;11.32;2.63;;;;;;;19.86;80.43;100094.34;5038898;28;20499;-81
2022/09/12 02:27:23;;;;;;;4.75;2.42;;;;;;;19.73;80.75;100086.88;5047523;28;20029;-81
2022/09/12 02:29:49;;;;;;;4.97;2.63;;;;;;;19.67;82.09;100098.59;5050460;28;20489;-81
2022/09/12 02:32:37;;;;;;;8.70;3.33;;;;;;;19.67;82.17;100084.09;5044377;28;20029;-81
2022/09/12 02:35:18;;;;;;;13.00;4.65;;;;;;;19.67;82.35;100081.34;5039225;28;20056;-81
2022/09/12 02:38:02;;;;;;;9.15;5.53;;;;;;;19.64;82.30;100098.97;5035588;28;20068;-82
2022/09/12 02:40:29;;;;;;;10.45;5.55;;;;;;;19.71;81.71;100085.41;5031149;28;20033;-81
2022/09/12 02:42:55;;;;;;;10.63;7.10;;;;;;;19.66;81.57;100074.25;5039616;28;20099;-82
2022/09/12 02:45:22;;;;;;;16.63;6.93;;;;;;;19.72;81.68;100089.81;5046778;28;20022;-81
2022/09/12 02:47:57;;;;;;;10.60;6.80;;;;;;;19.68;82.04;100085.78;5033127;28;20450;-82
2022/09/12 02:50:23;;;;;;;17.75;7.78;;;;;;;19.70;81.99;100080.97;5034446;28;20071;-83
2022/09/12 02:52:52;;;;;;;14.95;8.40;;;;;;;19.64;82.86;100073.56;5033005;28;20025;-83
2022/09/12 02:55:18;;;;;;;12.63;7.63;;;;;;;19.66;83.00;100091.47;5033482;28;20026;-83
2022/09/12 02:57:43;;;;;;;22.17;7.60;;;;;;;19.62;82.49;100100.22;5039600;28;20021;-83
2022/09/12 03:00:10;;;;;;;13.43;7.30;;;;;;;19.62;82.70;100095.59;5038909;28;20093;-82
2022/09/12 03:02:51;;;;;;;11.40;7.18;;;;;;;19.57;82.14;100091.78;5040768;28;20043;-81
2022/09/12 03:05:30;;;;;;;14.83;8.20;;;;;;;19.47;82.93;100076.59;5052342;28;20033;-81
2022/09/12 03:08:14;;;;;;;16.52;10.05;;;;;;;19.63;82.67;100080.91;5049267;28;20082;-79
2022/09/12 03:10:58;;;;;;;20.20;9.82;;;;;;;19.60;82.66;100085.94;5037019;28;20041;-80
2022/09/12 03:13:49;;;;;;;17.48;9.88;;;;;;;19.54;83.14;100088.38;5032270;28;20026;-81
2022/09/12 03:16:26;;;;;;;17.20;10.40;;;;;;;19.44;83.17;100076.97;5033253;28;20040;-80
2022/09/12 03:19:47;;;;;;;19.92;11.75;;;;;;;19.46;83.78;100080.34;5052617;28;20025;-80
2022/09/12 03:22:26;;;;;;;20.85;13.23;;;;;;;19.53;83.24;100085.88;5020638;28;20041;-81
2022/09/12 03:25:17;;;;;;;22.02;13.13;;;;;;;19.65;83.02;100086.19;5056032;28;20040;-81
2022/09/12 03:27:50;;;;;;;37.72;15.52;;;;;;;19.71;82.24;100074.47;5044085;28;20032;-81
2022/09/12 03:30:16;;;;;;;29.52;15.15;;;;;;;19.71;81.54;100060.84;5038944;28;20112;-82
2022/09/12 03:32:48;;;;;;;33.40;14.68;;;;;;;19.67;81.98;100065.00;5038797;28;20125;-80
2022/09/12 03:35:15;;;;;;;26.80;13.25;;;;;;;19.64;81.60;100057.19;5032287;28;20483;-81
2022/09/12 03:37:41;;;;;;;18.08;10.48;;;;;;;19.64;80.72;100054.47;5037415;28;20021;-80
2022/09/12 03:40:08;;;;;;;12.27;8.82;;;;;;;19.51;81.19;100056.03;5049763;28;20029;-80
2022/09/12 03:42:34;;;;;;;15.35;7.18;;;;;;;19.49;81.79;100049.97;5042199;28;20090;-81
2022/09/12 03:44:59;;;;;;;9.77;6.13;;;;;;;19.53;81.50;100045.81;5050135;28;20029;-82
2022/09/12 03:47:25;;;;;;;7.18;4.95;;;;;;;19.53;81.67;100048.53;5049262;28;20087;-81
2022/09/12 03:49:51;;;;;;;8.70;4.80;;;;;;;19.59;81.15;100052.34;5041726;28;20091;-81
2022/09/12 03:52:17;;;;;;;6.78;4.55;;;;;;;19.61;80.38;100057.59;5044488;28;20035;-80
2022/09/12 03:54:42;;;;;;;7.15;4.10;;;;;;;19.68;80.03;100063.97;5049734;28;20029;-83
2022/09/12 03:57:08;;;;;;;4.82;2.88;;;;;;;19.61;79.83;100052.13;5044179;28;20047;-82
2022/09/12 03:59:33;;;;;;;5.57;3.03;;;;;;;19.68;78.72;100061.22;5045395;28;20027;-80
2022/09/12 04:01:59;;;;;;;12.45;3.58;;;;;;;19.72;78.11;100065.25;5044264;28;20100;-81
2022/09/12 04:04:24;;;;;;;12.10;2.42;;;;;;;19.81;76.92;100070.38;5043996;28;20026;-81
2022/09/12 04:06:50;;;;;;;12.88;4.35;;;;;;;19.87;77.31;100066.00;5036713;28;20368;-81
2022/09/12 04:09:15;;;;;;;8.57;5.53;;;;;;;19.90;77.47;100068.34;5045212;28;20021;-80
2022/09/12 04:11:40;;;;;;;14.95;5.85;;;;;;;20.01;77.32;100089.63;5050232;28;20045;-80
2022/09/12 04:14:06;;;;;;;17.25;10.65;;;;;;;20.02;77.07;100097.63;5041759;28;20049;-82
2022/09/12 04:16:31;;;;;;;18.33;14.45;;;;;;;19.98;76.53;100090.88;5055051;28;20028;-81
2022/09/12 04:18:57;;;;;;;15.63;9.98;;;;;;;20.08;76.48;100115.09;5047292;28;20121;-82
2022/09/12 04:21:22;;;;;;;10.45;4.95;;;;;;;20.12;75.80;100099.97;5036871;28;20107;-81
2022/09/12 04:23:49;;;;;;;8.68;4.65;;;;;;;20.01;75.14;100081.44;5038645;28;20032;-85
2022/09/12 04:26:17;;;;;;;5.63;4.53;;;;;;;20.14;75.23;100094.34;5038394;28;20113;-84
2022/09/12 04:28:45;;;;;;;10.10;5.78;;;;;;;20.09;74.63;100101.22;5072439;28;20051;-81
2022/09/12 04:31:16;;;;;;;6.72;4.95;;;;;;;20.13;74.53;100104.41;5055205;28;20041;-84
2022/09/12 04:33:43;;;;;;;14.40;4.85;;;;;;;20.04;74.88;100091.97;5056611;28;20052;-87
2022/09/12 04:36:15;;;;;;;7.97;4.10;;;;;;;20.15;74.63;100105.06;5054450;28;20056;-86
2022/09/12 04:38:43;;;;;;;5.28;2.70;;;;;;;20.07;74.32;100083.38;5042226;28;20115;-82
2022/09/12 04:41:26;;;;;;;7.47;2.17;;;;;;;20.11;73.55;100081.94;5037294;28;20030;-81
2022/09/12 04:43:54;;;;;;;5.20;2.80;;;;;;;20.08;73.49;100091.38;5038035;28;20501;-79
2022/09/12 04:46:20;;;;;;;5.70;2.60;;;;;;;20.07;73.79;100099.75;5046496;28;20033;-83
2022/09/12 04:48:46;;;;;;;6.80;3.00;;;;;;;20.00;74.52;100101.56;5051132;28;20461;-84
2022/09/12 04:51:26;;;;;;;6.82;2.30;;;;;;;20.03;74.41;100114.81;5056353;28;20029;-80
2022/09/12 04:53:54;;;;;;;4.60;1.80;;;;;;;20.08;73.55;100096.84;5039019;28;20033;-82
2022/09/12 04:56:20;;;;;;;4.00;1.92;;;;;;;20.12;73.58;100094.53;5055669;28;20052;-82
2022/09/12 04:58:46;;;;;;;5.72;1.90;;;;;;;20.03;73.69;100082.91;5056354;28;20104;-79
2022/09/12 05:01:14;;;;;;;4.15;2.83;;;;;;;20.00;74.20;100096.13;5055979;28;20478;-84
2022/09/12 05:03:43;;;;;;;7.82;2.63;;;;;;;19.85;74.63;100106.28;5043127;28;20038;-88
2022/09/12 05:06:14;;;;;;;4.45;2.10;;;;;;;19.88;75.09;100105.88;5037764;28;20095;-85
2022/09/12 05:08:39;;;;;;;4.75;2.10;;;;;;;19.90;75.38;100112.88;5036085;28;20033;-85
2022/09/12 05:11:07;;;;;;;8.63;2.25;;;;;;;19.81;75.65;100100.41;5035962;28;20067;-85
2022/09/12 05:13:33;;;;;;;3.22;1.90;;;;;;;19.79;75.24;100096.16;5036044;28;20100;-84
2022/09/12 05:16:00;;;;;;;8.15;1.58;;;;;;;19.85;75.24;100111.75;5038363;28;20036;-86
2022/09/12 05:18:27;;;;;;;3.70;1.60;;;;;;;19.83;76.12;100111.09;5048752;28;20029;-86
2022/09/12 05:20:53;;;;;;;7.25;1.83;;;;;;;19.92;76.41;100112.66;5036531;28;20034;-87
2022/09/12 05:23:20;;;;;;;4.68;2.22;;;;;;;19.96;75.63;100111.22;5035537;28;20108;-86
2022/09/12 05:25:50;;;;;;;20.30;10.85;;;;;;;19.86;75.70;100097.06;5035590;28;20025;-87
2022/09/12 05:28:15;;;;;;;6.20;3.38;;;;;;;19.82;76.07;100098.50;5053130;28;20036;-88
2022/09/12 05:30:41;;;;;;;7.88;2.65;;;;;;;19.92;75.82;100107.19;5054093;28;20025;-87
2022/09/12 05:33:06;;;;;;;6.85;2.33;;;;;;;19.91;76.12;100105.50;5042337;28;20029;-87
2022/09/12 05:35:32;;;;;;;7.60;2.63;;;;;;;19.97;76.28;100121.94;5035201;28;20037;-87
2022/09/12 05:37:57;;;;;;;15.55;3.38;;;;;;;20.05;75.25;100131.88;5034950;28;20029;-87
2022/09/12 05:40:23;;;;;;;5.93;2.60;;;;;;;20.03;74.90;100126.59;5034670;28;20065;-82
2022/09/12 05:42:48;;;;;;;8.40;2.60;;;;;;;19.98;74.49;100115.44;5034190;28;20142;-82
2022/09/12 05:45:14;;;;;;;19.77;4.07;;;;;;;19.88;74.59;100094.97;5037033;28;20059;-85
2022/09/12 05:47:40;;;;;;;19.50;2.65;;;;;;;19.98;74.97;100114.59;5053417;28;20127;-86
2022/09/12 05:50:09;;;;;;;38.22;3.17;;;;;;;20.01;75.68;100116.94;5039328;28;20079;-86
2022/09/12 05:52:35;;;;;;;14.63;2.75;;;;;;;20.06;75.42;100119.91;5036810;28;20132;-88
2022/09/12 05:55:01;;;;;;;10.25;3.03;;;;;;;20.09;75.24;100125.81;5035288;28;20037;-85
2022/09/12 05:57:28;;;;;;;10.88;2.95;;;;;;;20.13;74.99;100109.88;5036296;28;20087;-86
2022/09/12 05:59:53;;;;;;;24.02;2.92;;;;;;;20.04;75.02;100103.72;5035556;28;20022;-87
2022/09/12 06:02:18;;;;;;;12.05;3.00;;;;;;;20.19;75.02;100117.28;5035394;28;20048;-88
2022/09/12 06:04:44;;;;;;;15.15;3.58;;;;;;;20.14;74.95;100103.38;5036054;28;20032;-89
2022/09/12 06:07:10;;;;;;;12.90;3.47;;;;;;;20.29;74.63;100122.41;5038548;28;20407;-87
2022/09/12 06:09:35;;;;;;;6.15;2.58;;;;;;;20.34;72.83;100125.38;5038902;28;20025;-85
2022/09/12 06:12:01;;;;;;;8.20;1.92;;;;;;;20.30;71.75;100115.91;5038218;28;20466;-91
2022/09/12 06:14:28;;;;;;;12.40;1.98;;;;;;;20.27;71.00;100100.78;5034711;28;20063;-91
2022/09/12 06:16:53;;;;;;;4.07;1.85;;;;;;;20.36;70.40;100118.69;5052404;28;20029;-90
2022/09/12 06:19:20;;;;;;;3.55;2.05;;;;;;;20.26;70.43;100098.22;5035455;28;20553;-88
2022/09/12 06:21:48;;;;;;;6.05;2.67;;;;;;;20.33;70.58;100110.91;5039295;28;20407;-88
2022/09/12 06:24:14;;;;;;;6.38;2.97;;;;;;;20.43;70.48;100118.72;5043695;28;20029;-91
2022/09/12 06:26:40;;;;;;;27.38;2.10;;;;;;;20.50;70.02;100116.88;5039047;28;20021;-93
2022/09/12 06:29:06;;;;;;;11.13;2.47;;;;;;;20.67;69.67;100128.34;5037643;28;20454;-91
2022/09/12 06:31:35;;;;;;;7.22;2.20;;;;;;;20.75;69.73;100123.53;5052514;28;20025;-93
2022/09/12 06:34:05;;;;;;;10.60;3.05;;;;;;;20.84;68.92;100121.47;5052492;28;20035;-94
2022/09/12 06:36:35;;;;;;;7.80;2.17;;;;;;;20.66;68.68;100105.63;5035401;28;20036;-88
2022/09/12 06:39:17;;;;;;;10.65;2.10;;;;;;;20.79;68.18;100124.84;5032909;28;20029;-85
2022/09/12 06:41:43;;;;;;;20.08;2.00;;;;;;;20.92;68.39;100129.50;5035369;28;20100;-86
2022/09/12 06:44:13;;;;;;;8.80;2.05;;;;;;;20.97;67.25;100129.75;5035717;28;20052;-90
2022/09/12 06:46:38;;;;;;;20.20;2.75;;;;;;;20.89;66.63;100102.56;5036290;28;20030;-91
2022/09/12 06:49:04;;;;;;;12.63;2.00;;;;;;;20.93;66.70;100107.44;5033639;28;20070;-90
2022/09/12 06:51:30;;;;;;;6.55;2.28;;;;;;;20.98;66.27;100093.13;5034224;28;20033;-87
2022/09/12 06:53:56;;;;;;;6.90;2.40;;;;;;;21.17;65.87;100125.22;5034059;28;20036;-88
2022/09/12 06:56:25;;;;;;;6.60;1.70;;;;;;;21.19;65.92;100119.56;5033337;28;20026;-87
2022/09/12 06:58:52;;;;;;;7.53;2.67;;;;;;;21.14;65.49;100092.81;5035257;28;20045;-90
2022/09/12 07:01:25;;;;;;;4.97;1.58;;;;;;;21.27;64.97;100119.34;5036132;28;20063;-92
2022/09/12 07:03:56;;;;;;;5.47;2.35;;;;;;;21.33;65.20;100113.91;5033262;28;20037;-89
2022/09/12 07:06:28;;;;;;;7.80;1.92;;;;;;;21.46;65.13;100105.72;5035608;28;20064;-88
2022/09/12 07:08:57;;;;;;;8.02;1.50;;;;;;;21.35;64.46;100097.25;5035671;28;20041;-96
2022/09/12 07:11:25;;;;;;;5.35;2.03;;;;;;;21.53;64.40;100103.81;5039545;28;20033;-92
2022/09/12 07:13:53;;;;;;;10.18;2.22;;;;;;;21.62;64.05;100110.78;5035562;28;20049;-90
2022/09/12 07:16:19;;;;;;;9.20;1.92;;;;;;;21.76;63.57;100108.06;5036546;28;20116;-93
2022/09/12 07:18:49;;;;;;;3.63;2.17;;;;;;;21.83;63.17;100111.66;5052552;28;20045;-93
2022/09/12 07:21:15;;;;;;;8.88;2.03;;;;;;;21.76;63.03;100094.38;5051715;28;20034;-91
2022/09/12 07:23:40;;;;;;;9.05;2.15;;;;;;;21.74;62.60;100094.59;5036937;28;20042;-91
2022/09/12 07:26:08;;;;;;;6.65;2.22;;;;;;;21.81;63.04;100094.59;5035894;28;20065;-91
2022/09/12 07:28:34;;;;;;;14.20;1.67;;;;;;;21.94;62.33;100102.84;5040566;28;20021;-93
2022/09/12 07:31:11;;;;;;;14.23;4.22;;;;;;;22.12;62.18;100116.72;5040261;28;20076;-92
2022/09/12 07:33:38;;;;;;;11.43;1.88;;;;;;;22.20;61.41;100111.03;5056794;28;20096;-92
2022/09/12 07:36:10;;;;;;;13.48;3.53;;;;;;;22.27;60.80;100111.03;5056825;28;20084;-93
2022/09/12 07:38:40;;;;;;;9.85;2.13;;;;;;;22.31;60.46;100104.06;5057716;28;20052;-92
2022/09/12 07:41:16;;;;;;;3.75;1.65;;;;;;;22.54;59.60;100118.97;5040665;28;20029;-94
2022/09/12 07:43:42;;;;;;;3.47;1.95;;;;;;;22.61;59.65;100122.56;5040797;28;20044;-90
2022/09/12 07:46:08;;;;;;;29.33;3.30;;;;;;;22.71;58.64;100112.03;5047464;28;20021;-86
2022/09/12 07:48:34;;;;;;;10.07;2.63;;;;;;;22.85;58.58;100109.22;5057593;28;20021;-86
2022/09/12 07:51:02;;;;;;;7.60;1.50;;;;;;;22.94;58.06;100118.88;5057804;28;20513;-86
2022/09/12 07:53:33;;;;;;;10.52;1.70;;;;;;;23.07;58.16;100118.84;5057653;28;20021;-87
2022/09/12 07:55:59;;;;;;;13.55;2.08;;;;;;;23.15;57.37;100110.34;5064342;28;20494;-87
2022/09/12 07:58:25;;;;;;;8.25;1.83;;;;;;;23.22;56.71;100109.25;5056971;28;20044;-85
2022/09/12 08:00:51;;;;;;;11.52;4.13;;;;;;;23.16;55.91;100095.56;5071854;28;20078;-82
2022/09/12 08:03:17;;;;;;;8.38;1.70;;;;;;;23.31;55.73;100116.19;5076762;28;20024;-83
2022/09/12 08:05:45;;;;;;;13.27;2.10;;;;;;;23.32;54.40;100117.03;5077759;28;20020;-83
2022/09/12 08:08:11;;;;;;;16.20;2.78;;;;;;;23.28;53.48;100107.53;5077938;28;20029;-85
2022/09/12 08:11:04;;;;;;;5.68;1.90;;;;;;;23.42;53.80;100111.94;5077845;28;20113;-87
2022/09/12 08:13:32;;;;;;;5.75;2.03;;;;;;;23.54;54.17;100103.84;5071250;28;20029;-84
2022/09/12 08:15:59;;;;;;;7.78;2.10;;;;;;;23.68;53.98;100105.41;5072485;28;20028;-86
2022/09/12 08:18:26;;;;;;;18.60;2.33;;;;;;;23.88;54.02;100099.78;5078013;28;20032;-84
2022/09/12 08:20:58;;;;;;;18.25;6.40;;;;;;;24.06;53.57;100100.69;5077174;28;20028;-82
2022/09/12 08:23:24;;;;;;;13.50;4.90;;;;;;;24.31;52.62;100096.00;5077736;28;20097;-85
2022/09/12 08:25:51;;;;;;;6.93;1.70;;;;;;;24.55;50.93;100098.94;5076870;28;20032;-84
2022/09/12 08:28:16;;;;;;;2.60;1.45;;;;;;;24.73;50.31;100087.94;5077677;28;20032;-83
2022/09/12 08:30:41;;;;;;;7.30;2.10;;;;;;;24.79;49.58;100093.38;5077494;28;20476;-84
2022/09/12 08:33:07;;;;;;;5.22;1.88;;;;;;;24.87;48.89;100100.50;5077769;28;20020;-83
2022/09/12 08:35:32;;;;;;;5.28;1.48;;;;;;;24.84;48.95;100090.78;5076730;28;20355;-85
2022/09/12 08:37:58;;;;;;;7.57;2.05;;;;;;;24.70;48.79;100092.00;5066118;28;20021;-86
2022/09/12 08:40:23;;;;;;;3.17;1.25;;;;;;;24.65;48.80;100086.31;5057082;28;20032;-84
2022/09/12 08:43:16;;;;;;;2.42;1.33;;;;;;;24.54;48.78;100084.34;5056489;28;20414;-83
2022/09/12 08:45:53;;;;;;;15.40;1.90;;;;;;;24.44;49.56;100067.53;5055802;28;20033;-83
2022/09/12 08:48:18;;;;;;;4.63;1.15;;;;;;;24.60;48.28;100068.84;5056355;28;20029;-84
2022/09/12 08:50:46;;;;;;;9.25;1.42;;;;;;;24.68;48.45;100083.13;5057349;28;20028;-84
2022/09/12 08:53:20;;;;;;;6.60;1.10;;;;;;;24.85;47.26;100064.97;5056302;28;20041;-84
2022/09/12 08:55:53;;;;;;;8.68;1.52;;;;;;;25.05;46.68;100072.09;5056993;28;20502;-83
2022/09/12 08:58:21;;;;;;;9.15;1.40;;;;;;;25.21;46.64;100065.97;5056176;28;20029;-80
2022/09/12 09:01:06;;;;;;;8.20;1.55;;;;;;;25.26;46.49;100068.84;5055211;28;20126;-81
2022/09/12 09:03:55;;;;;;;8.48;2.00;;;;;;;25.24;45.97;100065.50;5055515;28;20028;-81
2022/09/12 09:06:40;;;;;;;2.05;1.35;;;;;;;25.32;46.59;100067.91;5055021;28;20119;-81
2022/09/12 09:09:24;;;;;;;10.40;1.30;;;;;;;25.39;46.78;100049.38;5053292;28;20477;-83
2022/09/12 09:12:35;;;;;;;4.53;1.23;;;;;;;25.54;46.52;100041.56;5054120;28;20509;-81
2022/09/12 09:15:23;;;;;;;3.42;1.67;;;;;;;25.63;46.65;100039.28;5053228;28;20695;-82
2022/09/12 09:17:53;;;;;;;3.78;1.23;;;;;;;25.71;46.21;100031.53;5053178;28;20087;-81
2022/09/12 09:20:32;;;;;;;12.15;1.88;;;;;;;25.86;46.09;100042.94;5053157;28;20021;-80
2022/09/12 09:23:16;;;;;;;11.30;1.55;;;;;;;25.89;45.58;100039.69;5053923;28;20108;-81
2022/09/12 09:25:52;;;;;;;8.13;2.28;;;;;;;25.83;45.38;100035.16;5053946;28;20032;-81
2022/09/12 09:28:40;;;;;;;6.97;1.90;;;;;;;25.74;45.04;100031.06;5053920;28;20082;-83
2022/09/12 09:31:17;;;;;;;2.35;1.48;;;;;;;25.77;45.32;100036.09;5052319;28;20036;-82
2022/09/12 09:33:45;;;;;;;6.47;1.60;;;;;;;25.82;44.92;100027.94;5053071;28;20036;-82
2022/09/12 09:36:26;;;;;;;7.18;1.92;;;;;;;25.99;44.99;100031.66;5052927;28;20138;-82
2022/09/12 09:39:08;;;;;;;7.07;1.10;;;;;;;26.12;43.67;100016.78;5055326;28;20047;-89
2022/09/12 09:42:15;;;;;;;3.20;1.63;;;;;;;26.25;43.52;100022.09;5053736;28;20035;-80
2022/09/12 09:44:42;;;;;;;4.40;1.40;;;;;;;26.35;42.67;100027.84;5035971;28;20275;-83
2022/09/12 09:47:10;;;;;;;5.95;1.58;;;;;;;26.50;41.70;100024.59;5055137;28;20055;-89
2022/09/12 09:49:36;;;;;;;3.08;0.70;;;;;;;26.73;40.77;100013.47;5058422;28;20050;-88
2022/09/12 09:52:04;;;;;;;2.53;0.98;;;;;;;26.92;40.35;100027.97;5057038;28;20017;-88
2022/09/12 09:54:48;;;;;;;21.85;1.73;;;;;;;26.83;40.59;100002.69;5059272;28;20025;-91
2022/09/12 09:57:35;;;;;;;3.75;1.45;;;;;;;27.04;40.44;100010.28;5059363;28;20024;-92
2022/09/12 10:00:24;;;;;;;1.73;1.10;;;;;;;27.19;40.52;100019.91;5057229;28;20411;-91
2022/09/12 10:03:34;;;;;;;9.70;2.17;;;;;;;27.32;39.98;100016.84;5056005;28;20056;-88
2022/09/12 10:06:06;;;;;;;4.20;0.90;;;;;;;27.07;39.67;99980.47;5046660;28;20457;-90
2022/09/12 10:08:34;;;;;;;5.63;1.55;;;;;;;27.03;39.80;99992.03;5056697;28;20036;-90
2022/09/12 10:11:18;;;;;;;7.35;3.33;;;;;;;27.12;40.05;99991.63;5057476;28;20031;-91
2022/09/12 10:13:53;;;;;;;61.22;5.50;;;;;;;27.19;40.14;100000.59;5056598;28;20056;-91
2022/09/12 10:16:22;;;;;;;13.45;1.52;;;;;;;27.27;39.54;99998.28;5058250;28;20033;-91
2022/09/12 10:18:52;;;;;;;6.78;2.63;;;;;;;27.29;38.71;100011.81;5058014;28;20061;-91
2022/09/12 10:21:50;;;;;;;3.50;2.30;;;;;;;27.15;38.17;100004.94;5057907;28;20028;-90
2022/09/12 10:24:15;;;;;;;1.60;0.60;;;;;;;27.18;38.71;100018.25;5057594;28;20128;-91
2022/09/12 10:26:44;;;;;;;8.57;1.52;;;;;;;27.13;38.81;100002.41;5055457;28;20117;-90
2022/09/12 10:29:18;;;;;;;39.80;2.75;;;;;;;27.10;38.26;99996.56;5057119;28;20035;-90
2022/09/12 10:31:48;;;;;;;6.47;1.08;;;;;;;27.02;38.88;100017.97;5056492;28;20028;-90
2022/09/12 10:34:26;;;;;;;9.20;1.00;;;;;;;26.99;38.76;100017.63;5056126;28;20024;-91
2022/09/12 10:36:57;;;;;;;2.42;1.42;;;;;;;26.70;39.37;99989.13;5056627;28;20025;-89
2022/09/12 10:39:23;;;;;;;4.15;0.90;;;;;;;26.86;38.64;100013.22;5058619;28;20071;-89
2022/09/12 10:41:48;;;;;;;11.30;1.17;;;;;;;26.92;39.47;100020.53;5056636;28;20028;-90
2022/09/12 10:44:26;;;;;;;10.93;1.73;;;;;;;27.05;39.09;100002.84;5056580;28;20029;-90
2022/09/12 10:46:53;;;;;;;1.67;0.98;;;;;;;27.34;38.88;100017.44;5056749;28;20093;-90
2022/09/12 10:49:21;;;;;;;8.85;0.98;;;;;;;27.34;38.27;100001.69;5056316;28;20096;-90
2022/09/12 10:51:47;;;;;;;4.93;1.10;;;;;;;27.46;40.16;100023.78;5058408;28;20185;-90
2022/09/12 10:54:16;;;;;;;9.80;1.30;;;;;;;27.18;41.92;100009.97;5057458;28;20029;-88
2022/09/12 10:56:54;;;;;;;39.35;3.17;;;;;;;27.32;42.48;100020.44;5057440;28;20016;-88
2022/09/12 10:59:31;;;;;;;32.47;2.60;;;;;;;27.14;42.54;100003.25;5056798;28;20035;-88
2022/09/12 11:02:10;;;;;;;4.65;1.48;;;;;;;26.98;42.05;100021.44;5057032;28;20102;-89
2022/09/12 11:04:58;;;;;;;10.95;1.70;;;;;;;26.86;42.54;100017.91;5056795;28;20031;-90
2022/09/12 11:07:40;;;;;;;127.45;10.48;;;;;;;26.71;42.82;100025.84;5057444;28;20033;-90
2022/09/12 11:10:21;;;;;;;2.35;1.38;;;;;;;26.65;43.08;100008.34;5056441;28;20044;-92
2022/09/12 11:13:19;;;;;;;7.03;1.60;;;;;;;26.59;43.56;100006.56;5060279;28;20157;-91
2022/09/12 11:16:21;;;;;;;7.15;1.70;;;;;;;26.39;43.59;100000.63;5053403;28;20040;-91
2022/09/12 11:18:50;;;;;;;8.77;1.80;;;;;;;26.47;44.76;100008.53;5055996;28;20017;-92
2022/09/12 11:21:43;;;;;;;10.40;1.60;;;;;;;26.32;45.04;99969.59;5057705;28;20056;-91
2022/09/12 11:24:30;;;;;;;19.02;2.63;;;;;;;26.88;44.82;100010.25;5056879;28;20029;-91
2022/09/12 11:27:02;;;;;;;10.65;1.95;;;;;;;27.11;44.25;99998.22;5056576;28;20032;-91
2022/09/12 11:29:33;;;;;;;7.45;1.58;;;;;;;27.15;44.09;99999.44;5055709;28;20021;-91
2022/09/12 11:32:30;;;;;;;39.03;4.95;;;;;;;27.23;44.34;100015.56;5055420;28;20099;-89
2022/09/12 11:35:14;;;;;;;11.90;2.05;;;;;;;27.02;44.36;100017.97;5056098;28;20021;-91
2022/09/12 11:38:00;;;;;;;46.53;5.32;;;;;;;26.86;45.05;100024.25;5055071;28;20112;-91
2022/09/12 11:40:33;;;;;;;2.35;1.05;;;;;;;26.72;45.30;100019.25;5057022;28;20104;-91
2022/09/12 11:43:12;;;;;;;9.02;1.35;;;;;;;26.36;45.30;100001.13;5055564;28;20032;-91
2022/09/12 11:45:44;;;;;;;14.27;1.83;;;;;;;26.21;46.37;99995.25;5057165;28;20439;-91